sensor_id;sensor_type;location;lat;lon;timestamp;P1;durP1;ratioP1;P2;durP2;ratioP2
7823;SDS011;3957;48.61947800;9.05303100;2022-08-24T00:01:08;2.60;;;2.40;;
7823;SDS011;3957;48.61947800;9.05303100;2022-08-24T00:02:30;3.42;;;2.65;;
7823;SDS011;3957;48.61947800;9.05303100;2022-08-24T00:03:50;2.55;;;2.35;;
7823;SDS011;3957;48.61947800;9.05303100;2022-08-24T00:05:11;3.50;;;2.78;;
7823;SDS011;3957;48.61947800;9.05303100;2022-08-24T00:06:32;2.63;;;2.42;;
7823;SDS011;3957;48.61947800;9.05303100;2022-08-24T00:07:53;2.80;;;2.55;;
7823;SDS011;3957;48.61947800;9.05303100;2022-08-24T00:09:14;2.33;;;2.13;;
7823;SDS011;3957;48.61947800;9.05303100;2022-08-24T00:10:36;3.20;;;2.50;;
7823;SDS011;3957;48.61947800;9.05303100;2022-08-24T00:11:56;2.58;;;2.30;;
7823;SDS011;3957;48.61947800;9.05303100;2022-08-24T00:13:18;3.10;;;2.45;;
7823;SDS011;3957;48.61947800;9.05303100;2022-08-24T00:14:40;4.05;;;2.47;;
7823;SDS011;3957;48.61947800;9.05303100;2022-08-24T00:16:01;2.85;;;2.42;;
7823;SDS011;3957;48.61947800;9.05303100;2022-08-24T00:17:22;2.58;;;2.28;;
7823;SDS011;3957;48.61947800;9.05303100;2022-08-24T00:18:43;3.42;;;2.60;;
7823;SDS011;3957;48.61947800;9.05303100;2022-08-24T00:20:06;2.75;;;2.30;;
7823;SDS011;3957;48.61947800;9.05303100;2022-08-24T00:21:28;3.83;;;2.58;;
7823;SDS011;3957;48.61947800;9.05303100;2022-08-24T00:22:49;3.55;;;2.60;;
7823;SDS011;3957;48.61947800;9.05303100;2022-08-24T00:24:10;4.80;;;2.60;;
7823;SDS011;3957;48.61947800;9.05303100;2022-08-24T00:25:31;3.42;;;2.50;;
7823;SDS011;3957;48.61947800;9.05303100;2022-08-24T00:26:53;3.40;;;2.72;;
7823;SDS011;3957;48.61947800;9.05303100;2022-08-24T00:28:14;3.08;;;2.10;;
7823;SDS011;3957;48.61947800;9.05303100;2022-08-24T00:29:35;2.53;;;2.28;;
7823;SDS011;3957;48.61947800;9.05303100;2022-08-24T00:30:55;2.92;;;2.40;;
7823;SDS011;3957;48.61947800;9.05303100;2022-08-24T00:32:16;3.00;;;2.40;;
7823;SDS011;3957;48.61947800;9.05303100;2022-08-24T00:33:37;3.15;;;2.58;;
7823;SDS011;3957;48.61947800;9.05303100;2022-08-24T00:34:58;2.60;;;2.25;;
7823;SDS011;3957;48.61947800;9.05303100;2022-08-24T00:36:19;2.40;;;2.20;;
7823;SDS011;3957;48.61947800;9.05303100;2022-08-24T00:37:41;2.50;;;2.30;;
7823;SDS011;3957;48.61947800;9.05303100;2022-08-24T00:39:03;4.78;;;2.15;;
7823;SDS011;3957;48.61947800;9.05303100;2022-08-24T00:40:28;2.50;;;2.30;;
7823;SDS011;3957;48.61947800;9.05303100;2022-08-24T00:41:54;2.77;;;2.37;;
7823;SDS011;3957;48.61947800;9.05303100;2022-08-24T00:43:19;3.17;;;2.38;;
7823;SDS011;3957;48.61947800;9.05303100;2022-08-24T00:44:42;2.70;;;2.20;;
7823;SDS011;3957;48.61947800;9.05303100;2022-08-24T00:46:10;2.75;;;2.50;;
7823;SDS011;3957;48.61947800;9.05303100;2022-08-24T00:47:47;4.07;;;2.50;;
7823;SDS011;3957;48.61947800;9.05303100;2022-08-24T00:50:57;2.92;;;2.20;;
7823;SDS011;3957;48.61947800;9.05303100;2022-08-24T00:52:30;2.15;;;1.98;;
7823;SDS011;3957;48.61947800;9.05303100;2022-08-24T00:53:55;2.90;;;2.60;;
7823;SDS011;3957;48.61947800;9.05303100;2022-08-24T00:55:22;2.63;;;2.42;;
7823;SDS011;3957;48.61947800;9.05303100;2022-08-24T00:56:49;3.65;;;2.60;;
7823;SDS011;3957;48.61947800;9.05303100;2022-08-24T00:58:16;3.10;;;2.80;;
7823;SDS011;3957;48.61947800;9.05303100;2022-08-24T00:59:42;3.00;;;2.70;;
7823;SDS011;3957;48.61947800;9.05303100;2022-08-24T01:01:07;3.10;;;2.47;;
7823;SDS011;3957;48.61947800;9.05303100;2022-08-24T01:02:31;2.85;;;2.60;;
7823;SDS011;3957;48.61947800;9.05303100;2022-08-24T01:03:54;3.53;;;2.38;;
7823;SDS011;3957;48.61947800;9.05303100;2022-08-24T01:05:17;2.55;;;2.35;;
7823;SDS011;3957;48.61947800;9.05303100;2022-08-24T01:06:38;2.50;;;2.30;;
7823;SDS011;3957;48.61947800;9.05303100;2022-08-24T01:07:59;2.50;;;2.30;;
7823;SDS011;3957;48.61947800;9.05303100;2022-08-24T01:09:21;2.92;;;2.50;;
7823;SDS011;3957;48.61947800;9.05303100;2022-08-24T01:10:43;2.45;;;2.25;;
7823;SDS011;3957;48.61947800;9.05303100;2022-08-24T01:12:08;2.40;;;2.20;;
7823;SDS011;3957;48.61947800;9.05303100;2022-08-24T01:13:29;2.30;;;2.10;;
7823;SDS011;3957;48.61947800;9.05303100;2022-08-24T01:14:52;2.92;;;2.28;;
7823;SDS011;3957;48.61947800;9.05303100;2022-08-24T01:16:16;2.60;;;2.17;;
7823;SDS011;3957;48.61947800;9.05303100;2022-08-24T01:17:59;3.47;;;2.20;;
7823;SDS011;3957;48.61947800;9.05303100;2022-08-24T01:19:43;2.20;;;2.10;;
7823;SDS011;3957;48.61947800;9.05303100;2022-08-24T01:21:19;3.00;;;2.67;;
7823;SDS011;3957;48.61947800;9.05303100;2022-08-24T01:22:51;2.97;;;2.67;;
7823;SDS011;3957;48.61947800;9.05303100;2022-08-24T01:24:31;3.50;;;2.63;;
7823;SDS011;3957;48.61947800;9.05303100;2022-08-24T01:25:54;3.38;;;2.58;;
7823;SDS011;3957;48.61947800;9.05303100;2022-08-24T01:27:15;4.30;;;2.58;;
7823;SDS011;3957;48.61947800;9.05303100;2022-08-24T01:28:37;2.72;;;2.50;;
7823;SDS011;3957;48.61947800;9.05303100;2022-08-24T01:30:00;2.90;;;2.70;;
7823;SDS011;3957;48.61947800;9.05303100;2022-08-24T01:31:24;4.15;;;2.50;;
7823;SDS011;3957;48.61947800;9.05303100;2022-08-24T01:33:20;2.50;;;2.30;;
7823;SDS011;3957;48.61947800;9.05303100;2022-08-24T01:34:41;3.17;;;2.70;;
7823;SDS011;3957;48.61947800;9.05303100;2022-08-24T01:38:02;3.20;;;2.80;;
7823;SDS011;3957;48.61947800;9.05303100;2022-08-24T01:39:28;2.50;;;2.30;;
7823;SDS011;3957;48.61947800;9.05303100;2022-08-24T01:40:53;3.53;;;2.70;;
7823;SDS011;3957;48.61947800;9.05303100;2022-08-24T01:42:17;2.75;;;2.55;;
7823;SDS011;3957;48.61947800;9.05303100;2022-08-24T01:43:38;3.08;;;2.80;;
7823;SDS011;3957;48.61947800;9.05303100;2022-08-24T01:45:01;2.95;;;2.72;;
7823;SDS011;3957;48.61947800;9.05303100;2022-08-24T01:46:23;3.47;;;3.05;;
7823;SDS011;3957;48.61947800;9.05303100;2022-08-24T01:47:45;3.03;;;2.53;;
7823;SDS011;3957;48.61947800;9.05303100;2022-08-24T01:49:07;3.05;;;2.53;;
7823;SDS011;3957;48.61947800;9.05303100;2022-08-24T01:50:28;3.45;;;2.67;;
7823;SDS011;3957;48.61947800;9.05303100;2022-08-24T01:51:49;3.13;;;2.83;;
7823;SDS011;3957;48.61947800;9.05303100;2022-08-24T01:53:09;2.65;;;2.45;;
7823;SDS011;3957;48.61947800;9.05303100;2022-08-24T01:54:31;2.67;;;2.47;;
7823;SDS011;3957;48.61947800;9.05303100;2022-08-24T01:55:52;2.70;;;2.50;;
7823;SDS011;3957;48.61947800;9.05303100;2022-08-24T01:57:13;2.50;;;2.30;;
7823;SDS011;3957;48.61947800;9.05303100;2022-08-24T01:58:34;2.63;;;2.42;;
7823;SDS011;3957;48.61947800;9.05303100;2022-08-24T01:59:55;3.55;;;2.85;;
7823;SDS011;3957;48.61947800;9.05303100;2022-08-24T02:01:15;3.17;;;2.87;;
7823;SDS011;3957;48.61947800;9.05303100;2022-08-24T02:02:37;2.90;;;2.60;;
7823;SDS011;3957;48.61947800;9.05303100;2022-08-24T02:04:00;3.00;;;2.63;;
7823;SDS011;3957;48.61947800;9.05303100;2022-08-24T02:05:24;2.70;;;2.33;;
7823;SDS011;3957;48.61947800;9.05303100;2022-08-24T02:06:45;2.97;;;2.65;;
7823;SDS011;3957;48.61947800;9.05303100;2022-08-24T02:08:07;2.60;;;2.40;;
7823;SDS011;3957;48.61947800;9.05303100;2022-08-24T02:09:28;2.83;;;2.63;;
7823;SDS011;3957;48.61947800;9.05303100;2022-08-24T02:10:49;2.60;;;2.40;;
7823;SDS011;3957;48.61947800;9.05303100;2022-08-24T02:12:10;2.80;;;2.28;;
7823;SDS011;3957;48.61947800;9.05303100;2022-08-24T02:13:31;3.78;;;2.47;;
7823;SDS011;3957;48.61947800;9.05303100;2022-08-24T02:14:52;2.72;;;2.30;;
7823;SDS011;3957;48.61947800;9.05303100;2022-08-24T02:16:13;3.15;;;2.75;;
7823;SDS011;3957;48.61947800;9.05303100;2022-08-24T02:17:34;2.95;;;2.38;;
7823;SDS011;3957;48.61947800;9.05303100;2022-08-24T02:18:56;2.42;;;2.22;;
7823;SDS011;3957;48.61947800;9.05303100;2022-08-24T02:20:17;2.72;;;2.53;;
7823;SDS011;3957;48.61947800;9.05303100;2022-08-24T02:21:38;2.60;;;2.40;;
7823;SDS011;3957;48.61947800;9.05303100;2022-08-24T02:23:00;3.63;;;2.38;;
7823;SDS011;3957;48.61947800;9.05303100;2022-08-24T02:24:22;3.30;;;2.78;;
7823;SDS011;3957;48.61947800;9.05303100;2022-08-24T02:25:43;3.13;;;2.30;;
7823;SDS011;3957;48.61947800;9.05303100;2022-08-24T02:27:05;2.63;;;2.43;;
7823;SDS011;3957;48.61947800;9.05303100;2022-08-24T02:28:26;2.88;;;2.53;;
7823;SDS011;3957;48.61947800;9.05303100;2022-08-24T02:29:48;2.65;;;2.22;;
7823;SDS011;3957;48.61947800;9.05303100;2022-08-24T02:31:10;2.67;;;2.47;;
7823;SDS011;3957;48.61947800;9.05303100;2022-08-24T02:32:32;2.85;;;2.55;;
7823;SDS011;3957;48.61947800;9.05303100;2022-08-24T02:33:53;3.50;;;2.60;;
7823;SDS011;3957;48.61947800;9.05303100;2022-08-24T02:35:14;3.88;;;2.75;;
7823;SDS011;3957;48.61947800;9.05303100;2022-08-24T02:36:35;2.80;;;2.50;;
7823;SDS011;3957;48.61947800;9.05303100;2022-08-24T02:37:57;3.97;;;2.63;;
7823;SDS011;3957;48.61947800;9.05303100;2022-08-24T02:39:20;3.20;;;2.90;;
7823;SDS011;3957;48.61947800;9.05303100;2022-08-24T02:40:43;3.30;;;3.00;;
7823;SDS011;3957;48.61947800;9.05303100;2022-08-24T02:42:04;3.40;;;2.57;;
7823;SDS011;3957;48.61947800;9.05303100;2022-08-24T02:43:25;3.47;;;2.60;;
7823;SDS011;3957;48.61947800;9.05303100;2022-08-24T02:44:46;2.53;;;2.33;;
7823;SDS011;3957;48.61947800;9.05303100;2022-08-24T02:46:07;3.40;;;2.65;;
7823;SDS011;3957;48.61947800;9.05303100;2022-08-24T02:47:36;2.92;;;2.60;;
7823;SDS011;3957;48.61947800;9.05303100;2022-08-24T02:48:58;3.33;;;2.83;;
7823;SDS011;3957;48.61947800;9.05303100;2022-08-24T02:50:20;3.10;;;2.80;;
7823;SDS011;3957;48.61947800;9.05303100;2022-08-24T02:51:43;3.42;;;2.90;;
7823;SDS011;3957;48.61947800;9.05303100;2022-08-24T02:53:10;3.17;;;2.90;;
7823;SDS011;3957;48.61947800;9.05303100;2022-08-24T02:54:33;3.25;;;2.95;;
7823;SDS011;3957;48.61947800;9.05303100;2022-08-24T02:55:54;4.80;;;3.05;;
7823;SDS011;3957;48.61947800;9.05303100;2022-08-24T02:57:16;2.90;;;2.50;;
7823;SDS011;3957;48.61947800;9.05303100;2022-08-24T02:58:36;3.65;;;2.90;;
7823;SDS011;3957;48.61947800;9.05303100;2022-08-24T02:59:58;3.40;;;2.93;;
7823;SDS011;3957;48.61947800;9.05303100;2022-08-24T03:01:19;3.05;;;2.67;;
7823;SDS011;3957;48.61947800;9.05303100;2022-08-24T03:02:40;2.92;;;2.63;;
7823;SDS011;3957;48.61947800;9.05303100;2022-08-24T03:04:01;2.83;;;2.58;;
7823;SDS011;3957;48.61947800;9.05303100;2022-08-24T03:05:22;3.03;;;2.72;;
7823;SDS011;3957;48.61947800;9.05303100;2022-08-24T03:06:45;2.97;;;2.72;;
7823;SDS011;3957;48.61947800;9.05303100;2022-08-24T03:08:06;2.83;;;2.50;;
7823;SDS011;3957;48.61947800;9.05303100;2022-08-24T03:09:28;3.10;;;2.80;;
7823;SDS011;3957;48.61947800;9.05303100;2022-08-24T03:10:51;3.00;;;2.80;;
7823;SDS011;3957;48.61947800;9.05303100;2022-08-24T03:12:11;3.20;;;2.90;;
7823;SDS011;3957;48.61947800;9.05303100;2022-08-24T03:13:33;3.55;;;3.17;;
7823;SDS011;3957;48.61947800;9.05303100;2022-08-24T03:14:55;3.10;;;2.80;;
7823;SDS011;3957;48.61947800;9.05303100;2022-08-24T03:16:16;3.75;;;2.67;;
7823;SDS011;3957;48.61947800;9.05303100;2022-08-24T03:17:37;3.75;;;3.00;;
7823;SDS011;3957;48.61947800;9.05303100;2022-08-24T03:18:59;3.22;;;2.70;;
7823;SDS011;3957;48.61947800;9.05303100;2022-08-24T03:20:21;3.22;;;2.83;;
7823;SDS011;3957;48.61947800;9.05303100;2022-08-24T03:21:42;3.08;;;2.72;;
7823;SDS011;3957;48.61947800;9.05303100;2022-08-24T03:23:04;3.20;;;2.90;;
7823;SDS011;3957;48.61947800;9.05303100;2022-08-24T03:24:25;3.13;;;2.83;;
7823;SDS011;3957;48.61947800;9.05303100;2022-08-24T03:25:46;3.17;;;2.70;;
7823;SDS011;3957;48.61947800;9.05303100;2022-08-24T03:27:07;3.67;;;2.83;;
7823;SDS011;3957;48.61947800;9.05303100;2022-08-24T03:28:28;2.90;;;2.60;;
7823;SDS011;3957;48.61947800;9.05303100;2022-08-24T03:29:49;3.22;;;2.72;;
7823;SDS011;3957;48.61947800;9.05303100;2022-08-24T03:31:10;4.78;;;2.83;;
7823;SDS011;3957;48.61947800;9.05303100;2022-08-24T03:32:31;2.75;;;2.33;;
7823;SDS011;3957;48.61947800;9.05303100;2022-08-24T03:33:52;3.40;;;2.80;;
7823;SDS011;3957;48.61947800;9.05303100;2022-08-24T03:35:13;2.67;;;2.47;;
7823;SDS011;3957;48.61947800;9.05303100;2022-08-24T03:36:35;2.80;;;2.60;;
7823;SDS011;3957;48.61947800;9.05303100;2022-08-24T03:37:55;2.70;;;2.50;;
7823;SDS011;3957;48.61947800;9.05303100;2022-08-24T03:39:17;2.60;;;2.40;;
7823;SDS011;3957;48.61947800;9.05303100;2022-08-24T03:40:42;3.00;;;2.80;;
7823;SDS011;3957;48.61947800;9.05303100;2022-08-24T03:42:03;3.58;;;2.58;;
7823;SDS011;3957;48.61947800;9.05303100;2022-08-24T03:43:24;3.75;;;2.50;;
7823;SDS011;3957;48.61947800;9.05303100;2022-08-24T03:45:04;3.22;;;2.92;;
7823;SDS011;3957;48.61947800;9.05303100;2022-08-24T03:46:27;3.45;;;2.85;;
7823;SDS011;3957;48.61947800;9.05303100;2022-08-24T03:47:49;2.90;;;2.70;;
7823;SDS011;3957;48.61947800;9.05303100;2022-08-24T03:49:10;3.13;;;2.85;;
7823;SDS011;3957;48.61947800;9.05303100;2022-08-24T03:50:33;2.92;;;2.63;;
7823;SDS011;3957;48.61947800;9.05303100;2022-08-24T03:51:55;3.30;;;2.90;;
7823;SDS011;3957;48.61947800;9.05303100;2022-08-24T03:53:17;3.10;;;2.80;;
7823;SDS011;3957;48.61947800;9.05303100;2022-08-24T03:54:38;4.90;;;2.95;;
7823;SDS011;3957;48.61947800;9.05303100;2022-08-24T03:55:58;3.22;;;2.92;;
7823;SDS011;3957;48.61947800;9.05303100;2022-08-24T03:57:20;2.85;;;2.60;;
7823;SDS011;3957;48.61947800;9.05303100;2022-08-24T03:58:41;3.13;;;2.83;;
7823;SDS011;3957;48.61947800;9.05303100;2022-08-24T04:00:03;3.20;;;2.88;;
7823;SDS011;3957;48.61947800;9.05303100;2022-08-24T04:01:35;2.88;;;2.60;;
7823;SDS011;3957;48.61947800;9.05303100;2022-08-24T04:02:57;2.97;;;2.78;;
7823;SDS011;3957;48.61947800;9.05303100;2022-08-24T04:04:20;4.03;;;2.75;;
7823;SDS011;3957;48.61947800;9.05303100;2022-08-24T04:05:41;3.53;;;2.90;;
7823;SDS011;3957;48.61947800;9.05303100;2022-08-24T04:07:02;3.38;;;3.08;;
7823;SDS011;3957;48.61947800;9.05303100;2022-08-24T04:08:24;3.25;;;2.95;;
7823;SDS011;3957;48.61947800;9.05303100;2022-08-24T04:09:45;2.97;;;2.70;;
7823;SDS011;3957;48.61947800;9.05303100;2022-08-24T04:11:09;3.17;;;2.88;;
7823;SDS011;3957;48.61947800;9.05303100;2022-08-24T04:12:37;3.50;;;3.20;;
7823;SDS011;3957;48.61947800;9.05303100;2022-08-24T04:13:58;3.53;;;2.80;;
7823;SDS011;3957;48.61947800;9.05303100;2022-08-24T04:15:19;3.55;;;3.10;;
7823;SDS011;3957;48.61947800;9.05303100;2022-08-24T04:16:40;3.55;;;3.22;;
7823;SDS011;3957;48.61947800;9.05303100;2022-08-24T04:18:09;4.07;;;3.35;;
7823;SDS011;3957;48.61947800;9.05303100;2022-08-24T04:19:30;2.95;;;2.70;;
7823;SDS011;3957;48.61947800;9.05303100;2022-08-24T04:20:52;3.67;;;2.97;;
7823;SDS011;3957;48.61947800;9.05303100;2022-08-24T04:22:13;3.40;;;3.10;;
7823;SDS011;3957;48.61947800;9.05303100;2022-08-24T04:23:35;3.40;;;3.10;;
7823;SDS011;3957;48.61947800;9.05303100;2022-08-24T04:25:02;3.00;;;2.70;;
7823;SDS011;3957;48.61947800;9.05303100;2022-08-24T04:26:25;4.38;;;3.15;;
7823;SDS011;3957;48.61947800;9.05303100;2022-08-24T04:27:49;3.30;;;3.00;;
7823;SDS011;3957;48.61947800;9.05303100;2022-08-24T04:29:10;3.20;;;3.00;;
7823;SDS011;3957;48.61947800;9.05303100;2022-08-24T04:30:40;2.88;;;2.67;;
7823;SDS011;3957;48.61947800;9.05303100;2022-08-24T04:32:05;3.80;;;2.83;;
7823;SDS011;3957;48.61947800;9.05303100;2022-08-24T04:33:27;3.60;;;3.20;;
7823;SDS011;3957;48.61947800;9.05303100;2022-08-24T04:34:48;3.60;;;3.30;;
7823;SDS011;3957;48.61947800;9.05303100;2022-08-24T04:36:09;3.72;;;3.22;;
7823;SDS011;3957;48.61947800;9.05303100;2022-08-24T04:37:34;3.70;;;3.20;;
7823;SDS011;3957;48.61947800;9.05303100;2022-08-24T04:38:54;3.55;;;3.08;;
7823;SDS011;3957;48.61947800;9.05303100;2022-08-24T04:40:38;3.60;;;3.30;;
7823;SDS011;3957;48.61947800;9.05303100;2022-08-24T04:42:02;4.13;;;3.28;;
7823;SDS011;3957;48.61947800;9.05303100;2022-08-24T04:43:25;4.37;;;3.40;;
7823;SDS011;3957;48.61947800;9.05303100;2022-08-24T04:44:46;3.78;;;3.22;;
7823;SDS011;3957;48.61947800;9.05303100;2022-08-24T04:46:08;5.13;;;3.42;;
7823;SDS011;3957;48.61947800;9.05303100;2022-08-24T04:47:29;4.45;;;3.08;;
7823;SDS011;3957;48.61947800;9.05303100;2022-08-24T04:48:49;5.35;;;3.55;;
7823;SDS011;3957;48.61947800;9.05303100;2022-08-24T04:50:10;5.20;;;3.30;;
7823;SDS011;3957;48.61947800;9.05303100;2022-08-24T04:51:32;4.10;;;3.70;;
7823;SDS011;3957;48.61947800;9.05303100;2022-08-24T04:52:53;4.00;;;3.47;;
7823;SDS011;3957;48.61947800;9.05303100;2022-08-24T04:54:15;4.20;;;3.15;;
7823;SDS011;3957;48.61947800;9.05303100;2022-08-24T04:55:43;4.00;;;3.50;;
7823;SDS011;3957;48.61947800;9.05303100;2022-08-24T04:57:06;3.50;;;3.20;;
7823;SDS011;3957;48.61947800;9.05303100;2022-08-24T04:58:28;4.00;;;3.45;;
7823;SDS011;3957;48.61947800;9.05303100;2022-08-24T04:59:49;4.40;;;3.40;;
7823;SDS011;3957;48.61947800;9.05303100;2022-08-24T05:01:17;4.40;;;3.42;;
7823;SDS011;3957;48.61947800;9.05303100;2022-08-24T05:02:41;4.82;;;3.78;;
7823;SDS011;3957;48.61947800;9.05303100;2022-08-24T05:04:02;3.92;;;3.45;;
7823;SDS011;3957;48.61947800;9.05303100;2022-08-24T05:05:23;5.10;;;4.00;;
7823;SDS011;3957;48.61947800;9.05303100;2022-08-24T05:06:44;3.67;;;3.22;;
7823;SDS011;3957;48.61947800;9.05303100;2022-08-24T05:08:06;3.45;;;2.90;;
7823;SDS011;3957;48.61947800;9.05303100;2022-08-24T05:09:27;4.78;;;3.50;;
7823;SDS011;3957;48.61947800;9.05303100;2022-08-24T05:10:48;6.85;;;3.58;;
7823;SDS011;3957;48.61947800;9.05303100;2022-08-24T05:12:10;4.10;;;3.30;;
7823;SDS011;3957;48.61947800;9.05303100;2022-08-24T05:13:35;4.38;;;3.60;;
7823;SDS011;3957;48.61947800;9.05303100;2022-08-24T05:14:57;4.03;;;3.60;;
7823;SDS011;3957;48.61947800;9.05303100;2022-08-24T05:16:19;3.80;;;3.50;;
7823;SDS011;3957;48.61947800;9.05303100;2022-08-24T05:17:40;4.00;;;3.33;;
7823;SDS011;3957;48.61947800;9.05303100;2022-08-24T05:19:03;5.10;;;3.30;;
7823;SDS011;3957;48.61947800;9.05303100;2022-08-24T05:20:24;3.45;;;2.95;;
7823;SDS011;3957;48.61947800;9.05303100;2022-08-24T05:21:46;3.70;;;3.40;;
7823;SDS011;3957;48.61947800;9.05303100;2022-08-24T05:23:08;4.87;;;3.37;;
7823;SDS011;3957;48.61947800;9.05303100;2022-08-24T05:24:31;3.63;;;3.30;;
7823;SDS011;3957;48.61947800;9.05303100;2022-08-24T05:25:52;3.13;;;2.83;;
7823;SDS011;3957;48.61947800;9.05303100;2022-08-24T05:27:25;4.30;;;3.35;;
7823;SDS011;3957;48.61947800;9.05303100;2022-08-24T05:28:46;3.67;;;3.38;;
7823;SDS011;3957;48.61947800;9.05303100;2022-08-24T05:30:07;4.43;;;3.40;;
7823;SDS011;3957;48.61947800;9.05303100;2022-08-24T05:31:29;3.33;;;3.03;;
7823;SDS011;3957;48.61947800;9.05303100;2022-08-24T05:32:53;4.05;;;3.22;;
7823;SDS011;3957;48.61947800;9.05303100;2022-08-24T05:34:14;3.80;;;2.90;;
7823;SDS011;3957;48.61947800;9.05303100;2022-08-24T05:35:36;3.28;;;2.97;;
7823;SDS011;3957;48.61947800;9.05303100;2022-08-24T05:37:00;3.20;;;2.90;;
7823;SDS011;3957;48.61947800;9.05303100;2022-08-24T05:38:38;3.42;;;3.13;;
7823;SDS011;3957;48.61947800;9.05303100;2022-08-24T05:39:59;2.97;;;2.78;;
7823;SDS011;3957;48.61947800;9.05303100;2022-08-24T05:41:21;3.28;;;2.80;;
7823;SDS011;3957;48.61947800;9.05303100;2022-08-24T05:42:50;3.57;;;3.17;;
7823;SDS011;3957;48.61947800;9.05303100;2022-08-24T05:44:11;4.43;;;3.22;;
7823;SDS011;3957;48.61947800;9.05303100;2022-08-24T05:45:33;3.63;;;3.00;;
7823;SDS011;3957;48.61947800;9.05303100;2022-08-24T05:46:54;3.88;;;2.67;;
7823;SDS011;3957;48.61947800;9.05303100;2022-08-24T05:48:18;2.75;;;2.50;;
7823;SDS011;3957;48.61947800;9.05303100;2022-08-24T05:49:59;3.38;;;2.90;;
7823;SDS011;3957;48.61947800;9.05303100;2022-08-24T05:51:22;3.42;;;2.60;;
7823;SDS011;3957;48.61947800;9.05303100;2022-08-24T05:52:54;2.28;;;2.08;;
7823;SDS011;3957;48.61947800;9.05303100;2022-08-24T05:54:15;2.80;;;2.28;;
7823;SDS011;3957;48.61947800;9.05303100;2022-08-24T05:55:48;2.28;;;1.95;;
7823;SDS011;3957;48.61947800;9.05303100;2022-08-24T05:57:09;2.40;;;2.20;;
7823;SDS011;3957;48.61947800;9.05303100;2022-08-24T05:58:38;3.40;;;2.10;;
7823;SDS011;3957;48.61947800;9.05303100;2022-08-24T05:59:59;2.10;;;1.90;;
7823;SDS011;3957;48.61947800;9.05303100;2022-08-24T06:01:22;3.83;;;2.28;;
7823;SDS011;3957;48.61947800;9.05303100;2022-08-24T06:02:45;2.72;;;2.17;;
7823;SDS011;3957;48.61947800;9.05303100;2022-08-24T06:04:07;2.30;;;2.10;;
7823;SDS011;3957;48.61947800;9.05303100;2022-08-24T06:05:29;4.43;;;2.10;;
7823;SDS011;3957;48.61947800;9.05303100;2022-08-24T06:06:50;2.15;;;1.95;;
7823;SDS011;3957;48.61947800;9.05303100;2022-08-24T06:08:12;2.10;;;1.90;;
7823;SDS011;3957;48.61947800;9.05303100;2022-08-24T06:09:33;2.40;;;2.00;;
7823;SDS011;3957;48.61947800;9.05303100;2022-08-24T06:10:54;2.92;;;2.00;;
7823;SDS011;3957;48.61947800;9.05303100;2022-08-24T06:12:15;2.03;;;1.90;;
7823;SDS011;3957;48.61947800;9.05303100;2022-08-24T06:13:38;2.35;;;2.15;;
7823;SDS011;3957;48.61947800;9.05303100;2022-08-24T06:14:59;3.10;;;2.22;;
7823;SDS011;3957;48.61947800;9.05303100;2022-08-24T06:16:21;2.43;;;2.23;;
7823;SDS011;3957;48.61947800;9.05303100;2022-08-24T06:17:44;2.95;;;2.33;;
7823;SDS011;3957;48.61947800;9.05303100;2022-08-24T06:19:06;4.50;;;2.30;;
7823;SDS011;3957;48.61947800;9.05303100;2022-08-24T06:20:30;2.63;;;2.42;;
7823;SDS011;3957;48.61947800;9.05303100;2022-08-24T06:21:52;3.55;;;3.00;;
7823;SDS011;3957;48.61947800;9.05303100;2022-08-24T06:23:14;4.70;;;2.38;;
7823;SDS011;3957;48.61947800;9.05303100;2022-08-24T06:24:42;2.45;;;2.25;;
7823;SDS011;3957;48.61947800;9.05303100;2022-08-24T06:26:22;5.45;;;2.60;;
7823;SDS011;3957;48.61947800;9.05303100;2022-08-24T06:28:02;3.50;;;2.13;;
7823;SDS011;3957;48.61947800;9.05303100;2022-08-24T06:29:23;3.53;;;2.53;;
7823;SDS011;3957;48.61947800;9.05303100;2022-08-24T06:30:48;3.17;;;2.53;;
7823;SDS011;3957;48.61947800;9.05303100;2022-08-24T06:32:11;3.40;;;2.23;;
7823;SDS011;3957;48.61947800;9.05303100;2022-08-24T06:33:32;4.85;;;2.67;;
7823;SDS011;3957;48.61947800;9.05303100;2022-08-24T06:34:56;3.58;;;2.70;;
7823;SDS011;3957;48.61947800;9.05303100;2022-08-24T06:36:18;3.20;;;2.50;;
7823;SDS011;3957;48.61947800;9.05303100;2022-08-24T06:37:40;2.67;;;2.40;;
7823;SDS011;3957;48.61947800;9.05303100;2022-08-24T06:39:02;3.42;;;2.50;;
7823;SDS011;3957;48.61947800;9.05303100;2022-08-24T06:40:23;2.70;;;2.30;;
7823;SDS011;3957;48.61947800;9.05303100;2022-08-24T06:41:45;2.47;;;2.28;;
7823;SDS011;3957;48.61947800;9.05303100;2022-08-24T06:43:13;2.80;;;2.10;;
7823;SDS011;3957;48.61947800;9.05303100;2022-08-24T06:44:54;2.22;;;2.03;;
7823;SDS011;3957;48.61947800;9.05303100;2022-08-24T06:46:16;3.53;;;2.50;;
7823;SDS011;3957;48.61947800;9.05303100;2022-08-24T06:47:41;2.78;;;2.30;;
7823;SDS011;3957;48.61947800;9.05303100;2022-08-24T06:49:03;3.88;;;2.67;;
7823;SDS011;3957;48.61947800;9.05303100;2022-08-24T06:50:28;2.80;;;2.55;;
7823;SDS011;3957;48.61947800;9.05303100;2022-08-24T06:51:50;3.10;;;2.50;;
7823;SDS011;3957;48.61947800;9.05303100;2022-08-24T06:53:11;3.10;;;2.30;;
7823;SDS011;3957;48.61947800;9.05303100;2022-08-24T06:54:36;4.35;;;2.70;;
7823;SDS011;3957;48.61947800;9.05303100;2022-08-24T06:55:57;4.55;;;2.50;;
7823;SDS011;3957;48.61947800;9.05303100;2022-08-24T06:57:18;2.53;;;2.33;;
7823;SDS011;3957;48.61947800;9.05303100;2022-08-24T06:58:39;5.00;;;2.50;;
7823;SDS011;3957;48.61947800;9.05303100;2022-08-24T07:00:05;3.42;;;2.50;;
7823;SDS011;3957;48.61947800;9.05303100;2022-08-24T07:01:29;2.80;;;2.60;;
7823;SDS011;3957;48.61947800;9.05303100;2022-08-24T07:02:50;2.90;;;2.67;;
7823;SDS011;3957;48.61947800;9.05303100;2022-08-24T07:04:12;3.55;;;2.50;;
7823;SDS011;3957;48.61947800;9.05303100;2022-08-24T07:06:02;2.92;;;2.60;;
7823;SDS011;3957;48.61947800;9.05303100;2022-08-24T07:07:50;3.40;;;2.50;;
7823;SDS011;3957;48.61947800;9.05303100;2022-08-24T07:09:12;6.30;;;2.30;;
7823;SDS011;3957;48.61947800;9.05303100;2022-08-24T07:10:33;3.00;;;2.70;;
7823;SDS011;3957;48.61947800;9.05303100;2022-08-24T07:11:55;2.67;;;2.33;;
7823;SDS011;3957;48.61947800;9.05303100;2022-08-24T07:13:16;3.20;;;2.90;;
7823;SDS011;3957;48.61947800;9.05303100;2022-08-24T07:14:37;3.40;;;2.83;;
7823;SDS011;3957;48.61947800;9.05303100;2022-08-24T07:15:58;3.30;;;2.78;;
7823;SDS011;3957;48.61947800;9.05303100;2022-08-24T07:17:20;2.55;;;2.35;;
7823;SDS011;3957;48.61947800;9.05303100;2022-08-24T07:18:41;4.88;;;2.47;;
7823;SDS011;3957;48.61947800;9.05303100;2022-08-24T07:20:03;2.80;;;2.50;;
7823;SDS011;3957;48.61947800;9.05303100;2022-08-24T07:21:42;3.55;;;2.70;;
7823;SDS011;3957;48.61947800;9.05303100;2022-08-24T07:23:04;3.20;;;2.85;;
7823;SDS011;3957;48.61947800;9.05303100;2022-08-24T07:24:26;3.05;;;2.60;;
7823;SDS011;3957;48.61947800;9.05303100;2022-08-24T07:25:48;3.65;;;2.80;;
7823;SDS011;3957;48.61947800;9.05303100;2022-08-24T07:27:09;4.45;;;2.70;;
7823;SDS011;3957;48.61947800;9.05303100;2022-08-24T07:28:30;3.88;;;2.47;;
7823;SDS011;3957;48.61947800;9.05303100;2022-08-24T07:29:54;2.67;;;2.40;;
7823;SDS011;3957;48.61947800;9.05303100;2022-08-24T07:31:14;4.20;;;2.65;;
7823;SDS011;3957;48.61947800;9.05303100;2022-08-24T07:32:44;2.72;;;2.33;;